Time;durP1;ratioP1;P1;durP2;ratioP2;P2;SDS_P1;SDS_P2;PMS_P1;PMS_P2;Temp;Humidity;BMP_temperature;BMP_pressure;BME280_temperature;BME280_humidity;BME280_pressure;Samples;Min_cycle;Max_cycle;Signal;HPM_P1;HPM_P2
2021/08/18 00:00:41;;;;;;;7.93;4.50;;;;;;;;;;4993140;28;20511;-48
2021/08/18 00:03:08;;;;;;;9.70;5.32;;;;;;;;;;4972361;28;20035;-48
2021/08/18 00:05:35;;;;;;;10.20;4.97;;;;;;;;;;4980694;28;20038;-47
2021/08/18 00:08:02;;;;;;;9.02;4.43;;;;;;;;;;4989930;28;20049;-47
2021/08/18 00:10:30;;;;;;;9.05;4.88;;;;;;;;;;4979582;28;20057;-49
2021/08/18 00:12:56;;;;;;;8.98;5.25;;;;;;;;;;4991945;28;20145;-51
2021/08/18 00:15:25;;;;;;;10.48;5.43;;;;;;;;;;4991348;28;20042;-48
2021/08/18 00:17:54;;;;;;;10.18;5.53;;;;;;;;;;4989735;28;20054;-50
2021/08/18 00:20:20;;;;;;;10.80;5.63;;;;;;;;;;4991460;28;20069;-50
2021/08/18 00:22:47;;;;;;;9.65;5.50;;;;;;;;;;4991735;28;20130;-48
2021/08/18 00:25:14;;;;;;;12.20;9.73;;;;;;;;;;4991238;28;20177;-51
2021/08/18 00:27:41;;;;;;;10.57;6.68;;;;;;;;;;4991073;28;20070;-49
2021/08/18 00:30:09;;;;;;;9.93;5.93;;;;;;;;;;4991436;28;20484;-47
2021/08/18 00:32:35;;;;;;;10.95;5.53;;;;;;;;;;4991079;28;20049;-52
2021/08/18 00:35:02;;;;;;;8.25;5.10;;;;;;;;;;4984050;28;20441;-51
2021/08/18 00:37:29;;;;;;;9.23;5.00;;;;;;;;;;4991711;28;20429;-47
2021/08/18 00:39:56;;;;;;;11.20;4.88;;;;;;;;;;4983220;28;20560;-47
2021/08/18 00:42:22;;;;;;;9.35;4.70;;;;;;;;;;4991417;28;20121;-48
2021/08/18 00:44:49;;;;;;;11.25;5.70;;;;;;;;;;4991185;28;20461;-51
2021/08/18 00:47:16;;;;;;;9.68;5.20;;;;;;;;;;4990062;28;20042;-48
2021/08/18 00:49:42;;;;;;;8.20;4.75;;;;;;;;;;4991822;28;20050;-47
2021/08/18 00:52:09;;;;;;;10.10;5.43;;;;;;;;;;4995178;28;20047;-50
2021/08/18 00:54:51;;;;;;;9.35;5.00;;;;;;;;;;4994168;28;20361;-50
2021/08/18 00:57:18;;;;;;;10.05;5.10;;;;;;;;;;4975870;28;20043;-49
2021/08/18 00:59:45;;;;;;;9.07;5.07;;;;;;;;;;4982662;28;20129;-49
2021/08/18 01:02:11;;;;;;;10.88;5.40;;;;;;;;;;4994746;28;20034;-51
2021/08/18 01:04:38;;;;;;;11.60;5.40;;;;;;;;;;4995009;28;20439;-49
2021/08/18 01:07:05;;;;;;;10.50;5.47;;;;;;;;;;4980073;28;20130;-51
2021/08/18 01:09:32;;;;;;;10.85;5.13;;;;;;;;;;4985558;28;20038;-48
2021/08/18 01:11:59;;;;;;;8.80;4.70;;;;;;;;;;4995111;28;20373;-49
2021/08/18 01:14:27;;;;;;;9.05;5.70;;;;;;;;;;4994514;28;20427;-52
2021/08/18 01:16:53;;;;;;;11.32;5.88;;;;;;;;;;4990856;28;20046;-50
2021/08/18 01:19:20;;;;;;;8.77;5.07;;;;;;;;;;4994730;28;20046;-48
2021/08/18 01:21:48;;;;;;;10.48;5.22;;;;;;;;;;4995081;28;20043;-48
2021/08/18 01:24:18;;;;;;;13.05;5.90;;;;;;;;;;4988857;28;20046;-49
2021/08/18 01:26:45;;;;;;;10.10;5.88;;;;;;;;;;4976067;28;20039;-48
2021/08/18 01:29:11;;;;;;;13.18;5.60;;;;;;;;;;4994344;28;20038;-53
2021/08/18 01:31:40;;;;;;;9.75;5.65;;;;;;;;;;5004687;28;20057;-49
2021/08/18 01:34:06;;;;;;;11.32;5.93;;;;;;;;;;4993260;28;20056;-49
2021/08/18 01:36:34;;;;;;;10.82;6.10;;;;;;;;;;4994800;28;20535;-49
2021/08/18 01:39:05;;;;;;;11.05;5.57;;;;;;;;;;4984428;28;20054;-49
2021/08/18 01:41:32;;;;;;;12.15;6.05;;;;;;;;;;4994384;28;20137;-48
2021/08/18 01:43:59;;;;;;;10.43;5.75;;;;;;;;;;4994350;28;20046;-48
2021/08/18 01:46:26;;;;;;;10.82;6.30;;;;;;;;;;4993583;28;20054;-48
2021/08/18 01:48:53;;;;;;;10.52;6.07;;;;;;;;;;4990673;28;20431;-47
2021/08/18 01:51:20;;;;;;;12.82;6.07;;;;;;;;;;4994182;28;20459;-47
2021/08/18 01:53:46;;;;;;;13.45;6.07;;;;;;;;;;4993690;28;20508;-49
2021/08/18 01:56:16;;;;;;;12.25;6.40;;;;;;;;;;4983406;28;20047;-53
2021/08/18 01:58:43;;;;;;;13.23;6.38;;;;;;;;;;4988310;28;20046;-51
2021/08/18 02:01:11;;;;;;;13.57;6.72;;;;;;;;;;4993254;28;20150;-49
2021/08/18 02:03:39;;;;;;;12.05;7.15;;;;;;;;;;4988525;28;20086;-49
2021/08/18 02:06:05;;;;;;;12.15;6.05;;;;;;;;;;4974241;28;20058;-49
2021/08/18 02:08:32;;;;;;;11.15;5.80;;;;;;;;;;4976147;28;20117;-51
2021/08/18 02:10:59;;;;;;;13.65;6.20;;;;;;;;;;4990840;28;20042;-48
2021/08/18 02:13:27;;;;;;;15.55;7.88;;;;;;;;;;4993728;28;20042;-48
2021/08/18 02:15:54;;;;;;;14.45;6.85;;;;;;;;;;4989779;28;20502;-49
2021/08/18 02:18:21;;;;;;;14.25;7.03;;;;;;;;;;4982875;28;20039;-49
2021/08/18 02:20:48;;;;;;;12.10;6.60;;;;;;;;;;4993644;28;20053;-50
2021/08/18 02:23:15;;;;;;;12.30;6.55;;;;;;;;;;4993425;28;20041;-49
2021/08/18 02:25:42;;;;;;;15.80;6.85;;;;;;;;;;4990738;28;20046;-49
2021/08/18 02:28:09;;;;;;;12.93;6.30;;;;;;;;;;4986208;28;20426;-50
2021/08/18 02:30:36;;;;;;;11.55;6.00;;;;;;;;;;4993460;28;20556;-51
2021/08/18 02:33:03;;;;;;;12.35;6.07;;;;;;;;;;4993075;28;20077;-48
2021/08/18 02:35:30;;;;;;;12.85;6.55;;;;;;;;;;4991888;28;20050;-49
2021/08/18 02:37:57;;;;;;;12.82;6.43;;;;;;;;;;4991755;28;20050;-47
2021/08/18 02:40:24;;;;;;;13.57;6.50;;;;;;;;;;4989056;28;20042;-53
2021/08/18 02:42:52;;;;;;;12.00;6.43;;;;;;;;;;4993165;28;20042;-49
2021/08/18 02:45:21;;;;;;;13.55;6.68;;;;;;;;;;4993231;28;20125;-50
2021/08/18 02:47:48;;;;;;;12.15;6.57;;;;;;;;;;4989183;28;20138;-50
2021/08/18 02:50:17;;;;;;;15.57;6.57;;;;;;;;;;4992788;28;20045;-48
2021/08/18 02:52:44;;;;;;;15.05;6.60;;;;;;;;;;4992914;28;20049;-50
2021/08/18 02:55:11;;;;;;;14.00;7.03;;;;;;;;;;4992791;28;20042;-50
2021/08/18 02:57:38;;;;;;;13.63;7.00;;;;;;;;;;4991967;28;20520;-48
2021/08/18 03:00:05;;;;;;;14.38;6.65;;;;;;;;;;4992861;28;20133;-49
2021/08/18 03:02:32;;;;;;;13.40;6.95;;;;;;;;;;4993385;28;20042;-47
2021/08/18 03:04:59;;;;;;;14.27;6.88;;;;;;;;;;4992509;28;20130;-49
2021/08/18 03:07:26;;;;;;;14.73;7.55;;;;;;;;;;4977601;28;20396;-51
2021/08/18 03:09:52;;;;;;;13.20;7.10;;;;;;;;;;4987641;28;20039;-49
2021/08/18 03:12:19;;;;;;;12.95;6.70;;;;;;;;;;4992978;28;20129;-50
2021/08/18 03:14:46;;;;;;;15.07;7.07;;;;;;;;;;4991256;28;20484;-53
2021/08/18 03:17:13;;;;;;;16.77;7.30;;;;;;;;;;4986662;28;20129;-48
2021/08/18 03:19:40;;;;;;;16.05;8.13;;;;;;;;;;4987823;28;20380;-47
2021/08/18 03:22:06;;;;;;;14.25;8.13;;;;;;;;;;4992552;28;20048;-49
2021/08/18 03:24:33;;;;;;;15.13;7.85;;;;;;;;;;4991441;28;20445;-47
2021/08/18 03:27:00;;;;;;;16.77;7.68;;;;;;;;;;4976246;28;20041;-47
2021/08/18 03:29:27;;;;;;;14.98;7.50;;;;;;;;;;4992024;28;20057;-46
2021/08/18 03:31:54;;;;;;;16.00;7.70;;;;;;;;;;4991244;28;20077;-49
2021/08/18 03:34:20;;;;;;;17.15;7.70;;;;;;;;;;4984989;28;20048;-47
2021/08/18 03:36:47;;;;;;;14.65;7.75;;;;;;;;;;4992488;28;20049;-50
2021/08/18 03:39:14;;;;;;;16.70;8.57;;;;;;;;;;4991406;28;20065;-49
2021/08/18 03:41:41;;;;;;;16.25;7.72;;;;;;;;;;4992263;28;20053;-47
2021/08/18 03:44:07;;;;;;;18.77;8.98;;;;;;;;;;4991551;28;20497;-47
2021/08/18 03:46:34;;;;;;;14.55;8.25;;;;;;;;;;4982013;28;20058;-46
2021/08/18 03:49:01;;;;;;;16.85;8.57;;;;;;;;;;4981454;28;20054;-46
2021/08/18 03:51:28;;;;;;;17.98;10.65;;;;;;;;;;4991627;28;20046;-47
2021/08/18 03:53:55;;;;;;;17.73;9.32;;;;;;;;;;4984912;28;20141;-46
2021/08/18 03:56:21;;;;;;;16.65;9.73;;;;;;;;;;4975683;28;20541;-48
2021/08/18 03:58:48;;;;;;;17.42;10.95;;;;;;;;;;4991701;28;20530;-49
2021/08/18 04:01:15;;;;;;;18.58;8.93;;;;;;;;;;4991764;28;20046;-49
2021/08/18 04:03:42;;;;;;;15.32;8.32;;;;;;;;;;4978964;28;20046;-48
2021/08/18 04:06:08;;;;;;;23.50;16.00;;;;;;;;;;4989964;28;20133;-48
2021/08/18 04:08:35;;;;;;;20.45;13.35;;;;;;;;;;4990731;28;20031;-47
2021/08/18 04:11:05;;;;;;;19.40;11.02;;;;;;;;;;4992014;28;20371;-47
2021/08/18 04:13:32;;;;;;;16.55;7.65;;;;;;;;;;4991588;28;20069;-48
2021/08/18 04:15:58;;;;;;;15.10;8.35;;;;;;;;;;4991660;28;20054;-48
2021/08/18 04:18:25;;;;;;;17.50;7.60;;;;;;;;;;4982024;28;20093;-46
2021/08/18 04:20:52;;;;;;;17.33;8.73;;;;;;;;;;4990197;28;20144;-48
2021/08/18 04:23:19;;;;;;;15.35;7.70;;;;;;;;;;4991639;28;20073;-50
2021/08/18 04:25:46;;;;;;;16.83;7.55;;;;;;;;;;4987449;28;20046;-49
2021/08/18 04:28:12;;;;;;;15.82;7.82;;;;;;;;;;4984930;28;20042;-51
2021/08/18 04:30:39;;;;;;;14.85;7.72;;;;;;;;;;4997284;28;20054;-47
2021/08/18 04:33:06;;;;;;;16.08;7.45;;;;;;;;;;4991835;28;20133;-49
2021/08/18 04:35:33;;;;;;;18.52;11.13;;;;;;;;;;4988238;28;20243;-50
2021/08/18 04:37:59;;;;;;;16.33;7.95;;;;;;;;;;4994909;28;20133;-52
2021/08/18 04:40:26;;;;;;;12.90;7.30;;;;;;;;;;4976687;28;20540;-49
2021/08/18 04:42:53;;;;;;;13.55;7.45;;;;;;;;;;4972249;28;20035;-50
2021/08/18 04:45:20;;;;;;;14.80;7.25;;;;;;;;;;4987248;28;20039;-45
2021/08/18 04:47:47;;;;;;;16.65;7.72;;;;;;;;;;4981389;28;20050;-46
2021/08/18 04:50:14;;;;;;;15.05;7.65;;;;;;;;;;4987989;28;20048;-47
2021/08/18 04:52:41;;;;;;;15.38;7.63;;;;;;;;;;4991262;28;20170;-47
2021/08/18 04:55:08;;;;;;;15.27;7.72;;;;;;;;;;4988564;28;20038;-51
2021/08/18 04:57:35;;;;;;;14.40;8.07;;;;;;;;;;4970886;28;20433;-46
2021/08/18 05:00:02;;;;;;;16.15;7.95;;;;;;;;;;4985462;28;20034;-52
2021/08/18 05:02:31;;;;;;;14.88;7.65;;;;;;;;;;4990149;28;20066;-49
2021/08/18 05:04:59;;;;;;;13.65;7.75;;;;;;;;;;4989357;28;20134;-51
2021/08/18 05:07:25;;;;;;;14.23;7.60;;;;;;;;;;4990339;28;20065;-47
2021/08/18 05:09:52;;;;;;;14.05;8.20;;;;;;;;;;4985603;28;20049;-46
2021/08/18 05:12:19;;;;;;;15.40;7.28;;;;;;;;;;4990843;28;20403;-48
2021/08/18 05:14:45;;;;;;;14.25;8.45;;;;;;;;;;4990971;28;20042;-49
2021/08/18 05:17:12;;;;;;;16.92;9.38;;;;;;;;;;4985662;28;20423;-47
2021/08/18 05:19:39;;;;;;;14.50;7.72;;;;;;;;;;4980203;28;20113;-49
2021/08/18 05:22:06;;;;;;;16.40;8.25;;;;;;;;;;4990937;28;20459;-47
2021/08/18 05:24:32;;;;;;;14.77;8.50;;;;;;;;;;4990827;28;20031;-46
2021/08/18 05:26:59;;;;;;;15.23;7.80;;;;;;;;;;4986277;28;20049;-49
2021/08/18 05:29:26;;;;;;;18.58;8.90;;;;;;;;;;4990728;28;20035;-48
2021/08/18 05:31:53;;;;;;;15.48;8.27;;;;;;;;;;4995059;28;20042;-47
2021/08/18 05:34:19;;;;;;;14.25;7.78;;;;;;;;;;5003889;28;20046;-46
2021/08/18 05:36:46;;;;;;;13.93;7.78;;;;;;;;;;5006249;28;20045;-47
2021/08/18 05:39:13;;;;;;;16.55;9.25;;;;;;;;;;4996738;28;20502;-49
2021/08/18 05:41:40;;;;;;;13.27;7.75;;;;;;;;;;5006594;28;20096;-50
2021/08/18 05:44:06;;;;;;;15.10;8.27;;;;;;;;;;5007181;28;20046;-50
2021/08/18 05:46:33;;;;;;;15.70;8.32;;;;;;;;;;4995869;28;20064;-48
2021/08/18 05:49:00;;;;;;;16.98;8.68;;;;;;;;;;4979669;28;20509;-47
2021/08/18 05:51:27;;;;;;;19.42;9.60;;;;;;;;;;4973848;28;20055;-47
2021/08/18 05:53:54;;;;;;;17.77;8.90;;;;;;;;;;4987150;28;20038;-49
2021/08/18 05:56:20;;;;;;;14.40;8.07;;;;;;;;;;4994102;28;20507;-48
2021/08/18 05:58:47;;;;;;;16.08;8.15;;;;;;;;;;5013957;28;20046;-52
2021/08/18 06:01:14;;;;;;;15.15;8.57;;;;;;;;;;5002486;28;20046;-48
2021/08/18 06:03:41;;;;;;;17.65;9.85;;;;;;;;;;4990187;28;20054;-48
2021/08/18 06:06:07;;;;;;;17.95;10.02;;;;;;;;;;4986532;28;20437;-48
2021/08/18 06:08:34;;;;;;;18.20;9.10;;;;;;;;;;4986890;28;20049;-52
2021/08/18 06:11:01;;;;;;;19.00;9.00;;;;;;;;;;4992098;28;20046;-45
2021/08/18 06:13:29;;;;;;;19.55;10.23;;;;;;;;;;4991146;28;20080;-46
2021/08/18 06:15:56;;;;;;;15.50;8.20;;;;;;;;;;4995189;28;20056;-49
2021/08/18 06:18:23;;;;;;;18.23;9.50;;;;;;;;;;4992477;28;20042;-48
2021/08/18 06:20:49;;;;;;;16.83;9.25;;;;;;;;;;4989068;28;20046;-49
2021/08/18 06:23:20;;;;;;;18.52;9.60;;;;;;;;;;4993017;28;20136;-47
2021/08/18 06:25:47;;;;;;;22.67;10.82;;;;;;;;;;4990485;28;20385;-49
2021/08/18 06:28:15;;;;;;;22.73;10.75;;;;;;;;;;4995901;28;20504;-55
2021/08/18 06:30:42;;;;;;;18.92;10.45;;;;;;;;;;4995096;28;20041;-53
2021/08/18 06:33:09;;;;;;;18.90;10.32;;;;;;;;;;4997282;28;20121;-52
2021/08/18 06:35:36;;;;;;;19.17;10.38;;;;;;;;;;4992692;28;20093;-51
2021/08/18 06:38:03;;;;;;;23.15;11.70;;;;;;;;;;4999213;28;20049;-50
2021/08/18 06:40:30;;;;;;;18.30;10.15;;;;;;;;;;4971153;28;20221;-54
2021/08/18 06:42:57;;;;;;;21.80;11.30;;;;;;;;;;4987358;28;20046;-52
2021/08/18 06:45:24;;;;;;;21.00;10.75;;;;;;;;;;4989983;28;20049;-53
2021/08/18 06:47:51;;;;;;;19.13;10.75;;;;;;;;;;4988665;28;20047;-52
2021/08/18 06:50:18;;;;;;;20.38;10.73;;;;;;;;;;4990427;28;20047;-49
2021/08/18 06:52:44;;;;;;;21.00;11.70;;;;;;;;;;4989935;28;20042;-47
2021/08/18 06:55:11;;;;;;;19.15;10.98;;;;;;;;;;4988684;28;20048;-47
2021/08/18 06:57:38;;;;;;;20.58;11.27;;;;;;;;;;4985926;28;20133;-48
2021/08/18 07:00:06;;;;;;;21.60;10.80;;;;;;;;;;4991111;28;20050;-45
2021/08/18 07:02:33;;;;;;;18.92;11.23;;;;;;;;;;4989755;28;20446;-50
2021/08/18 07:05:04;;;;;;;22.33;11.52;;;;;;;;;;4989287;28;20506;-51
2021/08/18 07:07:30;;;;;;;19.70;11.65;;;;;;;;;;4988096;28;20041;-50
2021/08/18 07:09:57;;;;;;;21.70;10.38;;;;;;;;;;4990402;28;20777;-50
2021/08/18 07:12:24;;;;;;;20.75;11.70;;;;;;;;;;4988427;28;20069;-47
2021/08/18 07:14:51;;;;;;;20.45;11.90;;;;;;;;;;4988232;28;20050;-51
2021/08/18 07:17:17;;;;;;;20.27;11.13;;;;;;;;;;4985502;28;20088;-52
2021/08/18 07:19:44;;;;;;;21.13;11.80;;;;;;;;;;4989239;28;20065;-48
2021/08/18 07:22:11;;;;;;;18.98;11.30;;;;;;;;;;4990244;28;20142;-47
2021/08/18 07:24:38;;;;;;;22.85;11.60;;;;;;;;;;4987339;28;20046;-52
2021/08/18 07:27:04;;;;;;;23.08;11.48;;;;;;;;;;4986630;28;20050;-51
2021/08/18 07:29:31;;;;;;;20.08;10.63;;;;;;;;;;4988196;28;20034;-57
2021/08/18 07:31:58;;;;;;;22.08;11.57;;;;;;;;;;4989055;28;20460;-55
2021/08/18 07:34:25;;;;;;;19.52;10.77;;;;;;;;;;4986721;28;20132;-54
2021/08/18 07:36:51;;;;;;;21.83;11.55;;;;;;;;;;4988816;28;20047;-53
2021/08/18 07:39:18;;;;;;;21.35;10.75;;;;;;;;;;4987340;28;20056;-57
2021/08/18 07:41:45;;;;;;;20.38;11.50;;;;;;;;;;4990588;28;20050;-49
2021/08/18 07:44:12;;;;;;;18.50;10.55;;;;;;;;;;4999400;28;20038;-49
2021/08/18 07:46:40;;;;;;;21.42;11.90;;;;;;;;;;4993672;28;20120;-49
2021/08/18 07:49:06;;;;;;;20.00;11.02;;;;;;;;;;4987194;28;20066;-54
2021/08/18 07:51:33;;;;;;;22.35;12.60;;;;;;;;;;4991086;28;20050;-52
2021/08/18 07:54:00;;;;;;;19.88;10.95;;;;;;;;;;4989200;28;20053;-50
2021/08/18 07:56:31;;;;;;;17.83;10.70;;;;;;;;;;4987537;28;20097;-53
2021/08/18 07:59:01;;;;;;;21.13;11.90;;;;;;;;;;4989910;28;20042;-49
2021/08/18 08:01:35;;;;;;;19.48;11.05;;;;;;;;;;4991324;28;20174;-54
2021/08/18 08:04:02;;;;;;;19.27;11.18;;;;;;;;;;4991441;28;20065;-50
2021/08/18 08:06:29;;;;;;;18.48;11.35;;;;;;;;;;4988102;28;20287;-48
2021/08/18 08:08:56;;;;;;;21.83;10.80;;;;;;;;;;4982842;28;20498;-51
2021/08/18 08:11:22;;;;;;;18.67;10.63;;;;;;;;;;4990743;28;20050;-47
2021/08/18 08:13:49;;;;;;;25.17;11.75;;;;;;;;;;4992419;28;20053;-48
2021/08/18 08:16:16;;;;;;;17.80;10.98;;;;;;;;;;4991584;28;20435;-49
2021/08/18 08:18:43;;;;;;;18.30;10.75;;;;;;;;;;4986847;28;20496;-49
2021/08/18 08:21:09;;;;;;;18.25;10.45;;;;;;;;;;5003487;28;20065;-49
2021/08/18 08:23:36;;;;;;;18.40;10.77;;;;;;;;;;4988486;28;20492;-53
2021/08/18 08:26:03;;;;;;;18.13;10.60;;;;;;;;;;4999317;28;20038;-50
2021/08/18 08:28:30;;;;;;;17.08;9.43;;;;;;;;;;4990202;28;20046;-47
2021/08/18 08:30:56;;;;;;;18.30;10.82;;;;;;;;;;4991725;28;20466;-52
2021/08/18 08:33:23;;;;;;;19.75;10.98;;;;;;;;;;4991797;28;20074;-53
2021/08/18 08:35:50;;;;;;;16.67;9.80;;;;;;;;;;4986427;28;20055;-50
2021/08/18 08:38:17;;;;;;;17.00;10.02;;;;;;;;;;4993909;28;20058;-53
2021/08/18 08:40:44;;;;;;;17.58;10.40;;;;;;;;;;4991392;28;20052;-51
2021/08/18 08:43:12;;;;;;;15.75;9.93;;;;;;;;;;4996302;28;20042;-53
2021/08/18 08:45:46;;;;;;;17.38;9.65;;;;;;;;;;5010908;28;20048;-50
2021/08/18 08:48:17;;;;;;;18.13;10.05;;;;;;;;;;4976630;28;20045;-51
2021/08/18 08:50:44;;;;;;;17.42;9.70;;;;;;;;;;4971217;28;20542;-52
2021/08/18 08:53:10;;;;;;;15.50;9.73;;;;;;;;;;4971999;28;20098;-51
2021/08/18 08:55:37;;;;;;;16.73;9.02;;;;;;;;;;4973794;28;20046;-52
2021/08/18 08:58:04;;;;;;;13.88;8.70;;;;;;;;;;4991719;28;20046;-53
2021/08/18 09:00:31;;;;;;;16.48;9.95;;;;;;;;;;4991428;28;20054;-53
2021/08/18 09:03:07;;;;;;;17.48;10.13;;;;;;;;;;4992004;28;20130;-51
2021/08/18 09:05:34;;;;;;;15.70;8.90;;;;;;;;;;4983395;28;20058;-52
2021/08/18 09:08:01;;;;;;;16.40;9.80;;;;;;;;;;4971933;28;20115;-48
2021/08/18 09:10:28;;;;;;;14.98;9.27;;;;;;;;;;4972307;28;20442;-53
2021/08/18 09:13:08;;;;;;;16.63;9.95;;;;;;;;;;4974773;28;20389;-53
2021/08/18 09:15:34;;;;;;;16.52;10.52;;;;;;;;;;4975547;28;20489;-50
2021/08/18 09:18:01;;;;;;;18.77;9.52;;;;;;;;;;4975986;28;20042;-52
2021/08/18 09:20:29;;;;;;;14.85;9.15;;;;;;;;;;4975650;28;20046;-52
2021/08/18 09:22:57;;;;;;;14.50;9.07;;;;;;;;;;4975385;28;20042;-49
2021/08/18 09:25:35;;;;;;;19.25;10.00;;;;;;;;;;4975078;28;20101;-53
2021/08/18 09:28:01;;;;;;;15.98;9.57;;;;;;;;;;4975648;28;20067;-51
2021/08/18 09:30:29;;;;;;;14.65;8.90;;;;;;;;;;4975582;28;20042;-53
2021/08/18 09:33:00;;;;;;;14.57;9.20;;;;;;;;;;4975412;28;20046;-50
2021/08/18 09:35:29;;;;;;;14.60;9.23;;;;;;;;;;4975062;28;20047;-51
2021/08/18 09:37:56;;;;;;;16.23;9.80;;;;;;;;;;4974962;28;20051;-51
2021/08/18 09:40:43;;;;;;;14.77;8.93;;;;;;;;;;4975118;28;20045;-52
2021/08/18 09:43:10;;;;;;;18.23;9.95;;;;;;;;;;4975047;28;20043;-51
2021/08/18 09:45:39;;;;;;;15.48;8.00;;;;;;;;;;4974943;28;20038;-50
2021/08/18 09:48:09;;;;;;;17.20;9.07;;;;;;;;;;4974980;28;20167;-53
2021/08/18 09:50:41;;;;;;;14.52;8.25;;;;;;;;;;4975103;28;20046;-53
2021/08/18 09:53:15;;;;;;;15.10;8.73;;;;;;;;;;4975191;28;20043;-49
2021/08/18 09:56:08;;;;;;;18.13;9.80;;;;;;;;;;4974880;28;20043;-53
2021/08/18 09:58:57;;;;;;;17.13;7.70;;;;;;;;;;4973766;28;20489;-52
2021/08/18 10:01:24;;;;;;;15.68;8.82;;;;;;;;;;4975092;28;20038;-52
2021/08/18 10:03:54;;;;;;;13.18;7.68;;;;;;;;;;4974718;28;20050;-52
2021/08/18 10:06:21;;;;;;;12.95;7.85;;;;;;;;;;4974599;28;20201;-50
2021/08/18 10:08:51;;;;;;;13.88;8.07;;;;;;;;;;4974710;28;20408;-51
2021/08/18 10:11:18;;;;;;;12.95;7.10;;;;;;;;;;4974797;28;20043;-52
2021/08/18 10:13:45;;;;;;;13.95;7.53;;;;;;;;;;4974645;28;20137;-51
2021/08/18 10:16:13;;;;;;;13.13;7.80;;;;;;;;;;4974514;28;20043;-49
2021/08/18 10:18:40;;;;;;;11.95;7.53;;;;;;;;;;4974496;28;20094;-52
2021/08/18 10:21:11;;;;;;;11.93;7.25;;;;;;;;;;4974577;28;20144;-51
2021/08/18 10:23:57;;;;;;;14.48;8.07;;;;;;;;;;4973952;28;20047;-51
2021/08/18 10:26:36;;;;;;;15.02;9.00;;;;;;;;;;4974403;28;20415;-53
2021/08/18 10:29:04;;;;;;;12.75;7.68;;;;;;;;;;4974519;28;20039;-53
2021/08/18 10:31:40;;;;;;;13.85;7.57;;;;;;;;;;4974292;28;20122;-51
2021/08/18 10:34:09;;;;;;;12.10;7.65;;;;;;;;;;4972655;28;20050;-49
2021/08/18 10:36:42;;;;;;;12.75;7.32;;;;;;;;;;4980478;28;20039;-50
2021/08/18 10:39:20;;;;;;;14.40;7.65;;;;;;;;;;4982647;28;20043;-54
2021/08/18 10:41:59;;;;;;;12.27;7.82;;;;;;;;;;4974061;28;20069;-53
2021/08/18 10:44:41;;;;;;;12.43;7.00;;;;;;;;;;4973905;28;20039;-51
2021/08/18 10:47:10;;;;;;;9.75;6.30;;;;;;;;;;4974108;28;20043;-51
2021/08/18 10:49:37;;;;;;;11.30;7.57;;;;;;;;;;4991559;28;20042;-49
2021/08/18 10:52:04;;;;;;;14.55;7.20;;;;;;;;;;4993566;28;20448;-53
2021/08/18 10:54:31;;;;;;;11.85;7.40;;;;;;;;;;4993026;28;20145;-50
2021/08/18 10:56:59;;;;;;;11.85;7.10;;;;;;;;;;4991783;28;20536;-54
2021/08/18 10:59:35;;;;;;;14.27;7.80;;;;;;;;;;4973823;28;20066;-49
2021/08/18 11:02:03;;;;;;;12.38;7.13;;;;;;;;;;4973787;28;20053;-51
2021/08/18 11:04:42;;;;;;;11.48;7.03;;;;;;;;;;4973533;28;20043;-50
2021/08/18 11:07:09;;;;;;;13.65;7.40;;;;;;;;;;4973723;28;20519;-51
2021/08/18 11:09:54;;;;;;;14.30;7.78;;;;;;;;;;4973524;28;20134;-50
2021/08/18 11:12:37;;;;;;;12.23;7.10;;;;;;;;;;4973649;28;20049;-49
2021/08/18 11:15:19;;;;;;;11.35;7.07;;;;;;;;;;4973414;28;20073;-50
2021/08/18 11:17:49;;;;;;;11.27;6.97;;;;;;;;;;4985371;28;20046;-52
2021/08/18 11:20:17;;;;;;;11.18;7.38;;;;;;;;;;4993013;28;20567;-50
2021/08/18 11:22:44;;;;;;;13.40;7.57;;;;;;;;;;4992829;28;20052;-49
2021/08/18 11:25:13;;;;;;;11.02;6.80;;;;;;;;;;4990892;28;20488;-52
2021/08/18 11:27:45;;;;;;;11.30;6.80;;;;;;;;;;4973079;28;20039;-52
2021/08/18 11:30:12;;;;;;;11.43;6.57;;;;;;;;;;4973505;28;20403;-51
2021/08/18 11:32:39;;;;;;;9.60;5.78;;;;;;;;;;4973255;28;20053;-52
2021/08/18 11:35:06;;;;;;;9.82;6.40;;;;;;;;;;4971969;28;20416;-50
2021/08/18 11:37:33;;;;;;;9.00;6.43;;;;;;;;;;4973201;28;20043;-52
2021/08/18 11:40:02;;;;;;;11.75;6.90;;;;;;;;;;4973050;28;20483;-53
2021/08/18 11:42:29;;;;;;;13.10;6.57;;;;;;;;;;4973039;28;20074;-51
2021/08/18 11:45:00;;;;;;;9.43;6.43;;;;;;;;;;4972865;28;20509;-54
2021/08/18 11:47:30;;;;;;;12.32;6.95;;;;;;;;;;4973132;28;20460;-51
2021/08/18 11:49:57;;;;;;;10.60;6.32;;;;;;;;;;4971473;28;20503;-54
2021/08/18 11:52:24;;;;;;;11.65;6.70;;;;;;;;;;4972829;28;20050;-53
2021/08/18 11:54:55;;;;;;;11.80;6.35;;;;;;;;;;4971550;28;20141;-52
2021/08/18 11:57:22;;;;;;;10.70;6.22;;;;;;;;;;4973002;28;20062;-54
2021/08/18 11:59:50;;;;;;;9.45;6.68;;;;;;;;;;4972582;28;20043;-52
2021/08/18 12:02:17;;;;;;;11.68;6.47;;;;;;;;;;4972757;28;20098;-54
2021/08/18 12:04:44;;;;;;;12.05;6.07;;;;;;;;;;4972429;28;20043;-50
2021/08/18 12:07:13;;;;;;;10.23;5.50;;;;;;;;;;4971299;28;20249;-52
2021/08/18 12:09:41;;;;;;;7.63;5.28;;;;;;;;;;4972568;28;20440;-54
2021/08/18 12:12:12;;;;;;;8.27;5.18;;;;;;;;;;4972576;28;20445;-52
2021/08/18 12:14:41;;;;;;;9.32;5.70;;;;;;;;;;4972342;28;20047;-53
2021/08/18 12:17:08;;;;;;;8.60;5.15;;;;;;;;;;4972482;28;20568;-49
2021/08/18 12:19:39;;;;;;;6.75;4.78;;;;;;;;;;4972468;28;20138;-52
2021/08/18 12:22:09;;;;;;;7.80;4.72;;;;;;;;;;4972528;28;20047;-49
2021/08/18 12:24:37;;;;;;;7.85;4.50;;;;;;;;;;4972247;28;20068;-55
2021/08/18 12:27:05;;;;;;;6.97;4.18;;;;;;;;;;4972567;28;20043;-51
2021/08/18 12:29:33;;;;;;;7.65;4.10;;;;;;;;;;4973158;28;20398;-50
2021/08/18 12:32:01;;;;;;;7.47;4.20;;;;;;;;;;4972609;28;20121;-48
2021/08/18 12:34:28;;;;;;;8.13;4.65;;;;;;;;;;4975343;28;20125;-52
2021/08/18 12:37:04;;;;;;;8.23;4.80;;;;;;;;;;4991978;28;20038;-52
2021/08/18 12:39:39;;;;;;;7.05;4.40;;;;;;;;;;4978154;28;20061;-51
2021/08/18 12:42:07;;;;;;;7.53;4.45;;;;;;;;;;4972526;28;20054;-49
2021/08/18 12:44:35;;;;;;;8.02;4.95;;;;;;;;;;4971976;28;20086;-49
2021/08/18 12:47:06;;;;;;;9.43;4.72;;;;;;;;;;4974917;28;20043;-52
2021/08/18 12:49:35;;;;;;;7.07;5.05;;;;;;;;;;4976702;28;20043;-51
2021/08/18 12:52:04;;;;;;;6.22;4.30;;;;;;;;;;4976306;28;20122;-55
2021/08/18 12:54:31;;;;;;;7.75;4.72;;;;;;;;;;4975850;28;20051;-50
2021/08/18 12:57:00;;;;;;;9.25;4.32;;;;;;;;;;4976037;28;20129;-51
2021/08/18 12:59:26;;;;;;;7.88;4.63;;;;;;;;;;4976094;28;20079;-51
2021/08/18 13:01:53;;;;;;;8.10;4.30;;;;;;;;;;4975866;28;20434;-53
2021/08/18 13:04:20;;;;;;;7.97;4.05;;;;;;;;;;4975581;28;20086;-50
2021/08/18 13:06:47;;;;;;;6.47;3.90;;;;;;;;;;4975850;28;20039;-50
2021/08/18 13:09:13;;;;;;;6.65;3.75;;;;;;;;;;4975629;28;20046;-51
2021/08/18 13:11:40;;;;;;;7.60;4.93;;;;;;;;;;4975790;28;20045;-51
2021/08/18 13:14:07;;;;;;;9.15;4.57;;;;;;;;;;4975670;28;20053;-52
2021/08/18 13:16:34;;;;;;;7.75;4.72;;;;;;;;;;4975916;28;20415;-49
2021/08/18 13:19:00;;;;;;;9.38;4.85;;;;;;;;;;4986682;28;20038;-50
2021/08/18 13:21:27;;;;;;;6.93;4.60;;;;;;;;;;4995098;28;20053;-52
2021/08/18 13:23:54;;;;;;;8.65;5.20;;;;;;;;;;4995048;28;20055;-51
2021/08/18 13:26:21;;;;;;;9.20;5.32;;;;;;;;;;4988928;28;20042;-50
2021/08/18 13:28:47;;;;;;;7.47;4.53;;;;;;;;;;4975575;28;20415;-53
2021/08/18 13:31:17;;;;;;;9.82;5.35;;;;;;;;;;4975734;28;20042;-50
2021/08/18 13:33:43;;;;;;;7.22;4.50;;;;;;;;;;4975410;28;20050;-54
2021/08/18 13:36:10;;;;;;;8.38;3.83;;;;;;;;;;4975070;28;20046;-51
2021/08/18 13:38:37;;;;;;;6.80;3.90;;;;;;;;;;4980812;28;20045;-52
2021/08/18 13:41:04;;;;;;;6.63;3.67;;;;;;;;;;4994923;28;20046;-53
2021/08/18 13:43:30;;;;;;;7.45;4.05;;;;;;;;;;4994732;28;20042;-54
2021/08/18 13:45:57;;;;;;;6.70;3.67;;;;;;;;;;4994544;28;20053;-53
2021/08/18 13:48:24;;;;;;;6.03;3.65;;;;;;;;;;4976360;28;20130;-54
2021/08/18 13:50:51;;;;;;;9.90;3.97;;;;;;;;;;4975517;28;20042;-50
2021/08/18 13:53:18;;;;;;;6.00;3.80;;;;;;;;;;4988658;28;20163;-52
2021/08/18 13:55:45;;;;;;;6.47;4.30;;;;;;;;;;5006738;28;20122;-49
2021/08/18 13:58:12;;;;;;;7.30;3.92;;;;;;;;;;4993577;28;20443;-48
2021/08/18 14:00:38;;;;;;;6.70;4.30;;;;;;;;;;4995540;28;20050;-53
2021/08/18 14:03:06;;;;;;;7.95;4.20;;;;;;;;;;4999662;28;20092;-53
2021/08/18 14:05:34;;;;;;;9.13;3.90;;;;;;;;;;5013794;28;20050;-49
2021/08/18 14:08:08;;;;;;;5.72;3.28;;;;;;;;;;4998621;28;20050;-50
2021/08/18 14:10:35;;;;;;;6.57;3.53;;;;;;;;;;4984206;28;20062;-53
2021/08/18 14:13:02;;;;;;;6.38;3.22;;;;;;;;;;4991662;28;20056;-52
2021/08/18 14:15:29;;;;;;;5.72;3.22;;;;;;;;;;4996856;28;20199;-57
2021/08/18 14:17:57;;;;;;;4.82;3.20;;;;;;;;;;4982374;28;20146;-52
2021/08/18 14:20:23;;;;;;;6.18;3.28;;;;;;;;;;4974922;28;20051;-51
2021/08/18 14:22:50;;;;;;;4.95;3.25;;;;;;;;;;4974684;28;20468;-49
2021/08/18 14:25:18;;;;;;;6.75;3.42;;;;;;;;;;4974688;28;20046;-52
2021/08/18 14:27:45;;;;;;;6.18;3.33;;;;;;;;;;4988062;28;20052;-55
2021/08/18 14:30:12;;;;;;;4.57;2.90;;;;;;;;;;5008815;28;20326;-53
2021/08/18 14:32:41;;;;;;;7.18;4.35;;;;;;;;;;5001297;28;20045;-55
2021/08/18 14:35:08;;;;;;;6.13;3.67;;;;;;;;;;4999030;28;20034;-49